Virtual Norwegian Aeroclub

Virtual Norwegian Aeroclub! A new look to our va.




 METAR AND TAF INFORMATION
METAR FOR ENHF
ADDS - METARS form results

(0125 UTC 27 March 2019)
Data provider http://aviationweather.gov/metar/data/
 
Forecast for: ENHF (HAMMERFEST , NO)
Text: TAF ENHF 262300Z 2700/2709 22008KT 9999 SCT030
Forecast period: 0000 to 0900 UTC 27 March 2019
Forecast type: FROM: standard forecast or significant change
Winds: from the SW (220 degrees) at 9 MPH (8 knots; 4.1 m/s)
Visibility: 6 or more miles 10+ km)
Ceiling: at least 12,000 feet AGL
Clouds: scattered clouds at 3000 feet AGL
Weather: no significant weather forecast for this period
Text: TEMPO 2700/2709 16015G30KT
Forecast period: 0000 to 0900 UTC 27 March 2019
Forecast type: TEMPORARY: The following changes expected for less than half the time period
Winds: from the SSE (160 degrees) at 17 MPH (15 knots; 7.7 m/s)
gusting to 34 MPH (30 knots; 15.4 m/s)
Visibility: missing
Ceiling: unknown
Clouds: missing
Weather: no significant weather forecast for this period

 AIRPORT MAP

 RUNWAY INFORMATION
Runway 05 Runway length 2894 ft Runway width 0 ft
Runway elevation 259 ft Runway displaced threshold 0 ft Runway heading 0
Runway 23 Runway length 2894 ft Runway width 0 ft
Runway elevation 260 ft Runway displaced threshold 0 ft Runway heading 0

 AIRPORT FREQUENCIES

 AIRPORT NEAR NAVIGATION AIDS
Type VOR-DME Name Hammerfest Frequency 112400 KHZ